createdAt,value
2018-04-27T00:02:27.863Z,80.70
2018-04-27T00:04:55.416Z,80.50
2018-04-27T00:07:23.704Z,80.70
2018-04-27T00:09:51.243Z,80.70
2018-04-27T00:12:19.528Z,80.80
2018-04-27T00:14:47.836Z,80.60
2018-04-27T00:17:15.348Z,80.50
2018-04-27T00:19:43.666Z,80.80
2018-04-27T00:22:11.180Z,80.80
2018-04-27T00:24:38.728Z,80.90
2018-04-27T00:27:06.240Z,80.80
2018-04-27T00:29:33.788Z,80.80
2018-04-27T00:32:01.308Z,80.80
2018-04-27T00:34:28.929Z,81.00
2018-04-27T00:36:56.385Z,81.00
2018-04-27T00:39:23.923Z,81.20
2018-04-27T00:41:52.208Z,81.50
2018-04-27T00:44:19.765Z,81.40
2018-04-27T00:46:48.052Z,81.40
2018-04-27T00:49:15.591Z,81.30
2018-04-27T00:51:43.896Z,81.40
2018-04-27T00:54:11.408Z,81.40
2018-04-27T00:56:38.953Z,81.60
2018-04-27T00:59:06.468Z,81.80
2018-04-27T01:01:34.016Z,81.90
2018-04-27T01:04:02.300Z,81.90
2018-04-27T01:06:29.849Z,81.80
2018-04-27T01:08:58.128Z,81.80
2018-04-27T01:11:25.684Z,81.70
2018-04-27T01:13:53.968Z,81.80
2018-04-27T01:16:22.283Z,81.90
2018-04-27T01:18:49.800Z,81.80
2018-04-27T01:21:18.116Z,81.70
2018-04-27T01:23:45.643Z,81.60
2018-04-27T01:26:13.948Z,81.80
2018-04-27T01:28:41.476Z,81.80
2018-04-27T01:31:09.796Z,82.10
2018-04-27T01:33:37.308Z,82.10
2018-04-27T01:36:05.616Z,82.20
2018-04-27T01:38:33.131Z,82.10
2018-04-27T01:41:00.667Z,82.20
2018-04-27T01:43:28.182Z,82.20
2018-04-27T01:45:55.729Z,82.10
2018-04-27T01:48:24.012Z,82.10
2018-04-27T01:50:52.308Z,82.20
2018-04-27T01:53:19.848Z,82.10
2018-04-27T01:55:48.131Z,82.30
2018-04-27T01:58:16.443Z,82.30
2018-04-27T02:00:43.960Z,82.30
2018-04-27T02:03:12.268Z,82.50
2018-04-27T02:05:39.785Z,82.50
2018-04-27T02:08:08.096Z,82.50
2018-04-27T02:10:35.617Z,82.50
2018-04-27T02:13:03.160Z,82.60
2018-04-27T02:15:30.678Z,82.80
2018-04-27T02:17:58.217Z,82.90
2018-04-27T02:20:26.496Z,82.70
2018-04-27T02:22:54.810Z,82.90
2018-04-27T02:25:22.324Z,82.80
2018-04-27T02:27:50.629Z,82.90
2018-04-27T02:30:18.149Z,82.80
2018-04-27T02:32:45.692Z,82.90
2018-04-27T02:35:13.212Z,83.50
2018-04-27T02:37:40.757Z,82.80
2018-04-27T02:40:08.277Z,82.90
2018-04-27T02:42:35.820Z,82.90
2018-04-27T02:45:03.339Z,82.90
2018-04-27T02:47:30.888Z,82.90
2018-04-27T02:49:59.172Z,83.00
2018-04-27T02:52:27.489Z,83.00
2018-04-27T02:54:55.011Z,83.60
2018-04-27T02:57:23.330Z,82.90
2018-04-27T02:59:50.880Z,82.90
2018-04-27T03:02:18.396Z,83.00
2018-04-27T03:04:46.709Z,83.10
2018-04-27T03:07:14.224Z,83.10
2018-04-27T03:09:41.794Z,83.20
2018-04-27T03:12:10.087Z,83.20
2018-04-27T03:14:38.392Z,83.30
2018-04-27T03:17:05.907Z,83.20
2018-04-27T03:19:33.447Z,83.20
2018-04-27T03:22:00.960Z,83.20
2018-04-27T03:24:28.510Z,83.10
2018-04-27T03:26:56.032Z,83.00
2018-04-27T03:29:23.572Z,82.70
2018-04-27T03:31:51.092Z,82.80
2018-04-27T03:34:18.655Z,82.70
2018-04-27T03:36:46.172Z,82.70
2018-04-27T03:39:13.711Z,82.60
2018-04-27T03:41:41.227Z,82.40
2018-04-27T03:44:09.540Z,82.60
2018-04-27T03:46:37.055Z,82.50
2018-04-27T03:49:05.363Z,82.80
2018-04-27T03:51:32.880Z,82.90
2018-04-27T03:54:00.434Z,83.10
2018-04-27T03:56:27.954Z,83.10
2018-04-27T03:58:55.512Z,83.10
2018-04-27T04:01:34.798Z,82.90
2018-04-27T04:04:14.151Z,82.70
2018-04-27T04:06:42.450Z,82.10
2018-04-27T04:09:09.988Z,82.00
2018-04-27T04:11:38.272Z,82.20
2018-04-27T04:14:05.812Z,82.10
2018-04-27T04:16:33.332Z,82.00
2018-04-27T04:19:00.872Z,82.00
2018-04-27T04:21:28.391Z,82.50
2018-04-27T04:23:55.928Z,82.70
2018-04-27T04:26:23.440Z,83.10
2018-04-27T04:28:50.996Z,82.70
2018-04-27T04:31:18.521Z,82.70
2018-04-27T04:33:46.041Z,82.90
2018-04-27T04:36:13.579Z,82.70
2018-04-27T04:38:41.096Z,82.40
2018-04-27T04:41:08.665Z,82.30
2018-04-27T04:43:36.175Z,82.00
2018-04-27T04:46:03.722Z,82.20
2018-04-27T04:48:31.252Z,83.00
2018-04-27T04:50:59.571Z,82.50
2018-04-27T04:53:27.092Z,82.40
2018-04-27T04:55:55.403Z,82.50
2018-04-27T04:58:22.915Z,82.50
2018-04-27T05:00:50.782Z,82.40
2018-04-27T05:03:18.461Z,82.60
2018-04-27T05:05:46.764Z,82.80
2018-04-27T05:08:14.296Z,82.70
2018-04-27T05:10:42.699Z,82.60
2018-04-27T05:13:10.152Z,82.60
2018-04-27T05:15:38.626Z,82.60
2018-04-27T05:21:22.821Z,84.20
2018-04-27T05:23:50.349Z,83.50
2018-04-27T05:26:18.662Z,83.30
2018-04-27T05:28:46.176Z,83.30
2018-04-27T05:31:25.621Z,83.00
2018-04-27T05:33:53.093Z,83.10
2018-04-27T05:36:20.647Z,84.00
2018-04-27T05:38:48.960Z,82.00
2018-04-27T05:41:16.510Z,82.00
2018-04-27T05:43:44.037Z,82.60
2018-04-27T05:46:12.394Z,81.90
2018-04-27T05:48:39.948Z,81.80
2018-04-27T05:51:07.492Z,81.10
2018-04-27T05:53:35.033Z,81.30
2018-04-27T05:56:02.577Z,80.70
2018-04-27T05:58:30.872Z,81.50
2018-04-27T06:00:58.433Z,81.30
2018-04-27T06:03:27.376Z,81.10
2018-04-27T06:05:54.941Z,81.00
2018-04-27T06:08:22.494Z,81.50
2018-04-27T06:10:50.089Z,80.80
2018-04-27T06:13:18.376Z,81.20
2018-04-27T06:15:45.927Z,81.20
2018-04-27T06:18:14.215Z,80.40
2018-04-27T06:20:42.528Z,80.10
2018-04-27T06:23:10.048Z,80.10
2018-04-27T06:25:37.636Z,80.20
2018-04-27T06:28:05.132Z,79.60
2018-04-27T06:30:32.672Z,78.60
2018-04-27T06:33:00.228Z,78.80
2018-04-27T06:35:28.551Z,78.40
2018-04-27T06:37:56.876Z,78.70
2018-04-27T06:40:24.448Z,78.60
2018-04-27T06:42:51.992Z,78.90
2018-04-27T06:45:19.524Z,78.10
2018-04-27T06:47:47.858Z,76.90
2018-04-27T06:50:15.415Z,77.60
2018-04-27T06:52:42.974Z,76.90
2018-04-27T06:55:10.512Z,76.50
2018-04-27T06:57:38.068Z,76.80
2018-04-27T07:00:05.593Z,76.40
2018-04-27T07:02:33.153Z,76.00
2018-04-27T07:05:01.535Z,75.70
2018-04-27T07:07:29.088Z,75.60
2018-04-27T07:09:57.392Z,75.20
2018-04-27T07:12:24.944Z,75.10
2018-04-27T07:14:53.235Z,74.40
2018-04-27T07:17:20.784Z,74.40
2018-04-27T07:19:49.075Z,74.40
2018-04-27T07:22:16.624Z,74.40
2018-04-27T07:24:44.916Z,73.80
2018-04-27T07:27:12.454Z,73.70
2018-04-27T07:29:40.740Z,73.80
2018-04-27T07:32:09.048Z,73.10
2018-04-27T07:34:36.572Z,73.10
2018-04-27T07:37:04.891Z,73.30
2018-04-27T07:39:32.431Z,73.30
2018-04-27T07:41:59.976Z,73.00
2018-04-27T07:44:28.268Z,72.00
2018-04-27T07:46:55.824Z,72.00
2018-04-27T07:49:23.354Z,72.00
2018-04-27T07:51:50.892Z,71.30
2018-04-27T07:54:18.413Z,71.50
2018-04-27T07:56:45.964Z,71.10
2018-04-27T07:59:13.488Z,71.60
2018-04-27T08:01:41.036Z,71.10
2018-04-27T08:04:08.565Z,70.40
2018-04-27T08:06:36.116Z,70.80
2018-04-27T08:09:03.643Z,70.40
2018-04-27T08:11:31.961Z,69.20
2018-04-27T08:13:59.492Z,69.20
2018-04-27T08:16:27.856Z,69.20
2018-04-27T08:18:56.145Z,68.70
2018-04-27T08:21:24.432Z,68.80
2018-04-27T08:23:51.980Z,68.70
2018-04-27T08:26:23.044Z,68.30
2018-04-27T08:28:50.597Z,68.30
2018-04-27T08:31:18.119Z,67.50
2018-04-27T08:33:45.672Z,66.80
2018-04-27T08:36:13.263Z,68.10
2018-04-27T08:38:40.768Z,66.60
2018-04-27T08:41:08.288Z,66.30
2018-04-27T08:43:35.873Z,66.00
2018-04-27T08:46:03.399Z,65.30
2018-04-27T08:48:31.716Z,65.40
2018-04-27T08:50:59.243Z,65.10
2018-04-27T08:53:27.555Z,65.90
2018-04-27T08:55:55.080Z,65.60
2018-04-27T08:58:23.392Z,65.50
2018-04-27T09:00:50.960Z,65.50
2018-04-27T09:03:18.504Z,64.00
2018-04-27T09:05:46.036Z,63.40
2018-04-27T09:08:14.362Z,61.90
2018-04-27T09:10:41.883Z,62.00
2018-04-27T09:13:10.197Z,63.20
2018-04-27T09:15:37.724Z,62.30
2018-04-27T09:18:05.276Z,63.10
2018-04-27T09:20:33.560Z,61.60
2018-04-27T09:23:01.133Z,61.60
2018-04-27T09:25:28.656Z,61.10
2018-04-27T09:27:56.944Z,60.60
2018-04-27T09:30:25.260Z,60.10
2018-04-27T09:32:52.784Z,60.10
2018-04-27T09:35:21.096Z,60.90
2018-04-27T09:37:48.624Z,60.80
2018-04-27T09:40:16.936Z,59.80
2018-04-27T09:42:44.458Z,59.50
2018-04-27T09:45:12.776Z,58.70
2018-04-27T09:47:40.303Z,58.70
2018-04-27T09:50:08.620Z,59.20
2018-04-27T09:52:36.145Z,59.10
2018-04-27T09:55:03.716Z,59.30
2018-04-27T09:57:31.312Z,58.80
2018-04-27T09:59:59.568Z,56.50
2018-04-27T10:02:27.084Z,56.50
2018-04-27T10:04:55.398Z,55.30
2018-04-27T10:07:22.915Z,55.30
2018-04-27T10:09:51.229Z,54.00
2018-04-27T10:12:18.753Z,54.00
2018-04-27T10:14:46.304Z,53.60
2018-04-27T10:17:13.826Z,53.00
2018-04-27T10:19:42.024Z,52.50
2018-04-27T10:22:09.544Z,52.00
2018-04-27T10:24:37.112Z,53.30
2018-04-27T10:27:04.628Z,54.40
2018-04-27T10:29:32.926Z,53.70
2018-04-27T10:32:00.495Z,53.70
2018-04-27T10:34:28.031Z,53.80
2018-04-27T10:36:56.349Z,52.90
2018-04-27T10:39:23.877Z,52.80
2018-04-27T10:41:52.205Z,52.40
2018-04-27T10:44:19.742Z,52.40
2018-04-27T10:46:47.326Z,52.60
2018-04-27T10:49:14.861Z,52.20
2018-04-27T10:51:42.421Z,51.70
2018-04-27T10:54:09.954Z,52.80
2018-04-27T10:56:38.287Z,51.00
2018-04-27T10:59:05.815Z,50.80
2018-04-27T11:01:33.375Z,50.10
2018-04-27T11:04:00.917Z,50.70
2018-04-27T11:06:29.278Z,50.60
2018-04-27T11:08:56.823Z,50.50
2018-04-27T11:11:24.386Z,50.60
2018-04-27T11:13:51.918Z,50.60
2018-04-27T11:16:19.498Z,50.80
2018-04-27T11:18:47.038Z,49.60
2018-04-27T11:21:14.599Z,49.80
2018-04-27T11:23:42.129Z,50.20
2018-04-27T11:26:09.699Z,49.10
2018-04-27T11:28:37.262Z,48.70
2018-04-27T11:31:04.803Z,47.80
2018-04-27T11:33:32.369Z,47.40
2018-04-27T11:36:00.663Z,47.40
2018-04-27T11:38:28.220Z,47.40
2018-04-27T11:40:55.744Z,48.00
2018-04-27T11:43:23.349Z,47.00
2018-04-27T11:45:50.896Z,47.70
2018-04-27T11:48:19.566Z,47.80
2018-04-27T11:50:47.889Z,47.90
2018-04-27T11:53:15.496Z,47.50
2018-04-27T11:55:43.045Z,46.50
2018-04-27T11:58:10.605Z,47.00
2018-04-27T12:00:38.139Z,46.80
2018-04-27T12:03:05.713Z,46.30
2018-04-27T12:05:33.245Z,46.10
2018-04-27T12:08:00.830Z,45.10
2018-04-27T12:10:28.389Z,45.20
2018-04-27T12:12:55.938Z,44.90
2018-04-27T12:15:23.478Z,45.80
2018-04-27T12:17:51.038Z,44.70
2018-04-27T12:20:18.569Z,45.00
2018-04-27T12:22:46.893Z,45.10
2018-04-27T12:25:14.442Z,45.10
2018-04-27T12:27:42.001Z,45.00
2018-04-27T12:30:09.537Z,44.40
2018-04-27T12:32:37.074Z,43.60
2018-04-27T12:35:05.405Z,44.10
2018-04-27T12:37:32.933Z,44.00
2018-04-27T12:40:00.486Z,44.20
2018-04-27T12:42:28.026Z,43.20
2018-04-27T12:44:55.612Z,43.00
2018-04-27T12:47:23.926Z,43.70
2018-04-27T12:49:51.506Z,43.70
2018-04-27T12:52:19.128Z,44.30
2018-04-27T12:54:46.617Z,43.30
2018-04-27T12:57:15.185Z,43.60
2018-04-27T12:59:42.763Z,42.90
2018-04-27T13:02:10.293Z,43.40
2018-04-27T13:04:37.885Z,43.50
2018-04-27T13:07:05.421Z,43.30
2018-04-27T13:09:32.974Z,41.60
2018-04-27T13:12:00.502Z,41.70
2018-04-27T13:14:28.833Z,40.10
2018-04-27T13:16:56.363Z,40.10
2018-04-27T13:19:23.927Z,39.10
2018-04-27T13:21:51.469Z,38.60
2018-04-27T13:24:19.793Z,39.30
2018-04-27T13:26:47.390Z,39.40
2018-04-27T13:29:14.954Z,39.30
2018-04-27T13:31:42.497Z,40.70
2018-04-27T13:34:10.061Z,40.10
2018-04-27T13:36:37.621Z,39.70
2018-04-27T13:39:05.991Z,38.20
2018-04-27T13:41:33.551Z,38.50
2018-04-27T13:44:01.084Z,38.00
2018-04-27T13:46:28.640Z,38.30
2018-04-27T13:48:56.182Z,38.30
2018-04-27T13:51:23.741Z,38.10
2018-04-27T13:53:51.317Z,38.60
2018-04-27T13:56:19.385Z,38.00
2018-04-27T13:58:46.942Z,38.00
2018-04-27T14:01:14.509Z,37.30
2018-04-27T14:03:42.043Z,38.20
2018-04-27T14:06:10.371Z,37.50
2018-04-27T14:08:38.668Z,37.10
2018-04-27T14:11:06.237Z,37.10
2018-04-27T14:13:33.778Z,37.10
2018-04-27T14:16:01.354Z,36.90
2018-04-27T14:18:28.872Z,37.20
2018-04-27T14:20:56.419Z,37.10
2018-04-27T14:23:23.940Z,37.20
2018-04-27T14:25:51.480Z,37.70
2018-04-27T14:28:19.011Z,37.00
2018-04-27T14:30:46.556Z,37.00
2018-04-27T14:33:14.085Z,36.70
2018-04-27T14:35:41.608Z,36.80
2018-04-27T14:38:09.147Z,37.00
2018-04-27T14:40:36.669Z,36.70
2018-04-27T14:43:04.983Z,37.70
2018-04-27T14:45:32.495Z,37.80
2018-04-27T14:48:00.049Z,38.20
2018-04-27T14:50:28.776Z,38.60
2018-04-27T14:52:56.338Z,38.90
2018-04-27T14:55:23.878Z,38.00
2018-04-27T14:57:51.451Z,38.20
2018-04-27T15:00:19.748Z,40.00
2018-04-27T15:02:47.308Z,39.90
2018-04-27T15:05:14.842Z,38.50
2018-04-27T15:07:43.164Z,38.20
2018-04-27T15:10:10.692Z,38.80
2018-04-27T15:12:39.019Z,37.70
2018-04-27T15:15:06.563Z,37.70
2018-04-27T15:17:34.129Z,37.90
2018-04-27T15:20:01.667Z,37.70
2018-04-27T15:22:29.232Z,37.10
2018-04-27T15:24:57.301Z,36.70
2018-04-27T15:27:24.882Z,37.10
2018-04-27T15:29:52.431Z,37.20
2018-04-27T15:32:19.993Z,37.10
2018-04-27T15:34:47.591Z,36.80
2018-04-27T15:37:15.149Z,37.30
2018-04-27T15:39:42.697Z,36.40
2018-04-27T15:42:10.254Z,36.10
2018-04-27T15:44:37.782Z,36.20
2018-04-27T15:47:05.337Z,36.60
2018-04-27T15:49:32.918Z,36.80
2018-04-27T15:52:01.140Z,37.60
2018-04-27T15:54:28.629Z,37.40
2018-04-27T15:56:56.191Z,37.80
2018-04-27T15:59:23.721Z,38.80
2018-04-27T16:01:51.271Z,38.00
2018-04-27T16:04:18.814Z,37.10
2018-04-27T16:06:46.350Z,36.50
2018-04-27T16:09:13.997Z,36.30
2018-04-27T16:11:41.477Z,35.80
2018-04-27T16:14:09.045Z,36.80
2018-04-27T16:16:36.582Z,36.60
2018-04-27T16:19:04.182Z,36.40
2018-04-27T16:21:31.706Z,36.20
2018-04-27T16:23:59.282Z,35.80
2018-04-27T16:26:27.525Z,35.60
2018-04-27T16:28:55.997Z,35.50
2018-04-27T16:31:24.312Z,34.10
2018-04-27T16:33:52.603Z,34.10
2018-04-27T16:36:20.161Z,33.30
2018-04-27T16:38:47.725Z,32.90
2018-04-27T16:41:15.267Z,32.20
2018-04-27T16:43:42.829Z,32.10
2018-04-27T16:46:10.364Z,32.20
2018-04-27T16:48:37.928Z,32.70
2018-04-27T16:51:05.476Z,34.00
2018-04-27T16:53:33.044Z,34.20
2018-04-27T16:56:00.587Z,35.30
2018-04-27T16:58:28.913Z,36.60
2018-04-27T17:00:56.444Z,36.60
2018-04-27T17:03:24.015Z,37.20
2018-04-27T17:05:51.569Z,37.70
2018-04-27T17:08:19.125Z,38.40
2018-04-27T17:10:46.669Z,38.90
2018-04-27T17:13:14.996Z,39.20
2018-04-27T17:15:42.537Z,39.20
2018-04-27T17:18:10.087Z,39.20
2018-04-27T17:20:37.714Z,39.30
2018-04-27T17:23:05.273Z,39.50
2018-04-27T17:25:32.804Z,39.80
2018-04-27T17:28:00.364Z,40.10
2018-04-27T17:30:27.901Z,40.20
2018-04-27T17:32:55.523Z,40.60
2018-04-27T17:35:23.055Z,40.90
2018-04-27T17:37:50.599Z,41.10
2018-04-27T17:40:18.177Z,42.00
2018-04-27T17:42:45.718Z,41.50
2018-04-27T17:45:13.277Z,41.80
2018-04-27T17:47:40.838Z,42.10
2018-04-27T17:50:08.398Z,42.30
2018-04-27T17:52:35.929Z,42.00
2018-04-27T17:55:03.478Z,42.30
2018-04-27T17:57:31.780Z,42.90
2018-04-27T17:59:59.338Z,42.90
2018-04-27T18:02:26.876Z,42.80
2018-04-27T18:04:55.209Z,43.20
2018-04-27T18:07:22.736Z,43.10
2018-04-27T18:09:50.304Z,43.30
2018-04-27T18:12:17.921Z,43.60
2018-04-27T18:14:45.405Z,43.50
2018-04-27T18:17:12.948Z,43.70
2018-04-27T18:19:40.507Z,43.90
2018-04-27T18:22:08.029Z,44.10
2018-04-27T18:24:35.591Z,44.40
2018-04-27T18:27:03.115Z,44.60
2018-04-27T18:29:30.675Z,45.10
2018-04-27T18:31:58.219Z,45.40
2018-04-27T18:34:26.540Z,45.80
2018-04-27T18:36:54.073Z,45.90
2018-04-27T18:39:21.634Z,46.10
2018-04-27T18:41:49.181Z,46.30
2018-04-27T18:44:16.737Z,46.50
2018-04-27T18:46:45.029Z,47.00
2018-04-27T18:49:13.401Z,47.30
2018-04-27T18:51:40.913Z,47.20
2018-04-27T18:54:08.460Z,47.70
2018-04-27T18:56:36.796Z,47.70
2018-04-27T18:59:05.146Z,48.00
2018-04-27T19:01:32.683Z,48.00
2018-04-27T19:04:00.248Z,48.30
2018-04-27T19:06:28.531Z,48.70
2018-04-27T19:08:56.063Z,48.70
2018-04-27T19:11:23.618Z,48.90
2018-04-27T19:13:51.136Z,49.20
2018-04-27T19:16:18.682Z,49.10
2018-04-27T19:18:46.216Z,49.40
2018-04-27T19:21:13.756Z,49.60
2018-04-27T19:23:41.276Z,49.90
2018-04-27T19:26:10.596Z,50.10
2018-04-27T19:28:38.882Z,50.30
2018-04-27T19:31:07.196Z,50.80
2018-04-27T19:33:34.717Z,50.80
2018-04-27T19:36:03.024Z,51.30
2018-04-27T19:38:30.548Z,51.20
2018-04-27T19:40:58.866Z,51.90
2018-04-27T19:43:26.383Z,51.90
2018-04-27T19:45:54.694Z,52.40
2018-04-27T19:48:22.214Z,52.30
2018-04-27T19:50:50.554Z,53.10
2018-04-27T19:53:18.072Z,53.00
2018-04-27T19:55:45.627Z,53.20
2018-04-27T19:58:13.916Z,53.80
2018-04-27T20:00:41.452Z,53.80
2018-04-27T20:03:09.740Z,54.30
2018-04-27T20:05:38.048Z,54.50
2018-04-27T20:08:05.571Z,54.50
2018-04-27T20:10:37.523Z,54.80
2018-04-27T20:13:05.724Z,55.00
2018-04-27T20:15:36.257Z,54.90
2018-04-27T20:18:21.466Z,55.00
2018-04-27T20:20:49.020Z,55.20
2018-04-27T20:23:17.359Z,55.30
2018-04-27T20:25:48.584Z,55.50
2018-04-27T20:28:17.000Z,55.40
2018-04-27T20:30:44.552Z,55.40
2018-04-27T20:33:12.067Z,55.40
2018-04-27T20:35:39.616Z,55.30
2018-04-27T20:38:15.908Z,55.50
2018-04-27T20:40:43.451Z,55.60
2018-04-27T20:43:11.693Z,55.60
2018-04-27T20:45:39.246Z,55.70
2018-04-27T20:48:24.615Z,55.70
2018-04-27T20:50:57.120Z,55.90
2018-04-27T20:53:24.636Z,55.90
2018-04-27T20:55:53.749Z,56.10
2018-04-27T20:58:21.263Z,56.10
2018-04-27T21:00:48.804Z,56.10
2018-04-27T21:03:16.348Z,56.30
2018-04-27T21:05:43.869Z,56.50
2018-04-27T21:08:12.177Z,56.80
2018-04-27T21:10:40.420Z,56.70
2018-04-27T21:13:08.732Z,56.70
2018-04-27T21:15:36.256Z,56.70
2018-04-27T21:18:05.984Z,56.90
2018-04-27T21:20:34.547Z,56.80
2018-04-27T21:23:03.718Z,56.90
2018-04-27T21:25:34.007Z,57.10
2018-04-27T21:28:03.420Z,57.20
2018-04-27T21:30:31.392Z,57.20
2018-04-27T21:33:08.674Z,57.20
2018-04-27T21:35:42.046Z,57.30
2018-04-27T21:41:16.835Z,58.10
2018-04-27T21:43:44.377Z,58.00
2018-04-27T21:46:11.892Z,58.00
2018-04-27T21:48:39.431Z,58.20
2018-04-27T21:51:06.980Z,58.30
2018-04-27T21:53:34.520Z,58.20
2018-04-27T21:56:02.066Z,58.60
2018-04-27T21:58:30.362Z,58.90
2018-04-27T22:00:57.879Z,58.90
2018-04-27T22:03:26.198Z,59.50
2018-04-27T22:05:57.308Z,59.50
2018-04-27T22:11:37.632Z,60.70
2018-04-27T22:14:05.169Z,59.80
2018-04-27T22:16:33.604Z,59.70
2018-04-27T22:19:01.159Z,59.80
2018-04-27T22:21:28.680Z,59.80
2018-04-27T22:23:59.820Z,59.90
2018-04-27T22:26:27.364Z,59.80
2018-04-27T22:29:00.098Z,59.80
2018-04-27T22:31:28.369Z,59.80
2018-04-27T22:33:58.223Z,59.90
2018-04-27T22:36:27.363Z,60.30
2018-04-27T22:42:12.373Z,61.10
2018-04-27T22:44:54.191Z,60.50
2018-04-27T22:50:22.962Z,61.90
2018-04-27T22:52:50.481Z,61.10
2018-04-27T22:55:18.871Z,61.10
2018-04-27T22:58:02.033Z,61.00
2018-04-27T23:00:30.546Z,61.10
2018-04-27T23:02:58.939Z,61.40
2018-04-27T23:05:27.459Z,61.60
2018-04-27T23:08:03.828Z,61.80
2018-04-27T23:13:51.654Z,63.40
2018-04-27T23:16:20.101Z,62.60
2018-04-27T23:18:50.097Z,62.60
2018-04-27T23:21:19.139Z,62.70
2018-04-27T23:23:46.777Z,63.00
2018-04-27T23:26:14.349Z,63.00
2018-04-27T23:28:41.971Z,64.00
2018-04-27T23:31:09.687Z,63.20
2018-04-27T23:33:37.325Z,63.20
2018-04-27T23:36:04.957Z,64.00
2018-04-27T23:38:32.550Z,63.20
2018-04-27T23:41:00.174Z,63.20
2018-04-27T23:43:27.857Z,63.20
2018-04-27T23:45:55.437Z,63.30
2018-04-27T23:48:23.069Z,63.30
2018-04-27T23:50:52.400Z,63.50
2018-04-27T23:53:21.441Z,63.60
2018-04-27T23:55:49.163Z,64.00
2018-04-27T23:58:18.395Z,63.60
